sensor_id;sensor_type;location;lat;lon;timestamp;pressure;altitude;pressure_sealevel;temperature;humidity
70921;BME280;58572;48.110;19.838;2023-03-14T00:01:11;97117.25;;;4.76;62.00
70921;BME280;58572;48.110;19.838;2023-03-14T00:03:39;97152.78;;;4.73;61.92
70921;BME280;58572;48.110;19.838;2023-03-14T00:06:07;97159.59;;;4.91;61.86
70921;BME280;58572;48.110;19.838;2023-03-14T00:08:35;97137.34;;;5.31;59.91
70921;BME280;58572;48.110;19.838;2023-03-14T00:11:06;97133.16;;;4.82;61.41
70921;BME280;58572;48.110;19.838;2023-03-14T00:13:35;97114.06;;;4.94;60.98
70921;BME280;58572;48.110;19.838;2023-03-14T00:16:04;97109.22;;;4.91;60.37
70921;BME280;58572;48.110;19.838;2023-03-14T00:18:32;97107.03;;;4.78;61.39
70921;BME280;58572;48.110;19.838;2023-03-14T00:21:00;97095.19;;;4.84;61.23
70921;BME280;58572;48.110;19.838;2023-03-14T00:23:28;97087.66;;;4.81;61.56
70921;BME280;58572;48.110;19.838;2023-03-14T00:25:58;97082.09;;;5.28;60.04
70921;BME280;58572;48.110;19.838;2023-03-14T00:28:26;97088.47;;;4.81;60.31
70921;BME280;58572;48.110;19.838;2023-03-14T00:30:56;97087.16;;;5.14;59.38
70921;BME280;58572;48.110;19.838;2023-03-14T00:33:23;97081.28;;;5.28;59.81
70921;BME280;58572;48.110;19.838;2023-03-14T00:35:55;97045.66;;;4.95;60.07
70921;BME280;58572;48.110;19.838;2023-03-14T00:38:23;97080.41;;;4.97;60.50
70921;BME280;58572;48.110;19.838;2023-03-14T00:40:51;97068.34;;;5.30;59.63
70921;BME280;58572;48.110;19.838;2023-03-14T00:43:18;97072.56;;;4.75;60.88
70921;BME280;58572;48.110;19.838;2023-03-14T00:45:47;97071.53;;;4.96;60.60
70921;BME280;58572;48.110;19.838;2023-03-14T00:48:16;97030.06;;;5.02;58.99
70921;BME280;58572;48.110;19.838;2023-03-14T00:50:43;97068.28;;;4.89;60.98
70921;BME280;58572;48.110;19.838;2023-03-14T00:53:10;97033.25;;;4.74;60.50
70921;BME280;58572;48.110;19.838;2023-03-14T00:55:38;97064.25;;;4.97;60.85
70921;BME280;58572;48.110;19.838;2023-03-14T00:58:06;97057.53;;;4.94;61.10
70921;BME280;58572;48.110;19.838;2023-03-14T01:00:33;97047.56;;;5.00;61.10
70921;BME280;58572;48.110;19.838;2023-03-14T01:03:00;97038.66;;;4.99;61.18
70921;BME280;58572;48.110;19.838;2023-03-14T01:05:29;97035.19;;;5.39;59.01
70921;BME280;58572;48.110;19.838;2023-03-14T01:07:57;96891.91;;;4.76;58.35
70921;BME280;58572;48.110;19.838;2023-03-14T01:10:24;97019.81;;;5.20;59.00
70921;BME280;58572;48.110;19.838;2023-03-14T01:12:51;96895.91;;;5.09;57.08
70921;BME280;58572;48.110;19.838;2023-03-14T01:15:19;96972.84;;;5.71;56.45
70921;BME280;58572;48.110;19.838;2023-03-14T01:17:46;97005.28;;;5.31;59.10
70921;BME280;58572;48.110;19.838;2023-03-14T01:20:14;97005.56;;;5.29;58.57
70921;BME280;58572;48.110;19.838;2023-03-14T01:22:43;97002.03;;;5.03;59.21
70921;BME280;58572;48.110;19.838;2023-03-14T01:25:12;96996.66;;;5.39;57.74
70921;BME280;58572;48.110;19.838;2023-03-14T01:27:40;96991.22;;;5.54;57.94
70921;BME280;58572;48.110;19.838;2023-03-14T01:30:09;96985.34;;;5.42;58.14
70921;BME280;58572;48.110;19.838;2023-03-14T01:32:37;96984.25;;;4.82;59.17
70921;BME280;58572;48.110;19.838;2023-03-14T01:35:04;96977.81;;;4.83;60.20
70921;BME280;58572;48.110;19.838;2023-03-14T01:37:32;96974.56;;;5.32;58.44
70921;BME280;58572;48.110;19.838;2023-03-14T01:40:01;96963.72;;;5.62;57.24
70921;BME280;58572;48.110;19.838;2023-03-14T01:42:29;96918.78;;;5.37;57.53
70921;BME280;58572;48.110;19.838;2023-03-14T01:44:58;96939.28;;;6.08;56.01
70921;BME280;58572;48.110;19.838;2023-03-14T01:47:26;96940.63;;;5.21;58.03
70921;BME280;58572;48.110;19.838;2023-03-14T01:49:53;96928.31;;;5.84;56.07
70921;BME280;58572;48.110;19.838;2023-03-14T01:52:25;96918.75;;;5.48;57.28
70921;BME280;58572;48.110;19.838;2023-03-14T01:54:56;96924.47;;;5.10;58.32
70921;BME280;58572;48.110;19.838;2023-03-14T01:57:29;96913.69;;;5.21;57.67
70921;BME280;58572;48.110;19.838;2023-03-14T01:59:59;96915.34;;;4.86;59.06
70921;BME280;58572;48.110;19.838;2023-03-14T02:02:29;96916.69;;;4.89;59.10
70921;BME280;58572;48.110;19.838;2023-03-14T02:04:58;96807.13;;;4.64;57.93
70921;BME280;58572;48.110;19.838;2023-03-14T02:07:31;96901.00;;;5.26;58.42
70921;BME280;58572;48.110;19.838;2023-03-14T02:10:01;96895.88;;;5.20;57.80
70921;BME280;58572;48.110;19.838;2023-03-14T02:12:35;96892.72;;;4.87;59.46
70921;BME280;58572;48.110;19.838;2023-03-14T02:15:02;96883.72;;;5.42;53.83
70921;BME280;58572;48.110;19.838;2023-03-14T02:17:30;96888.59;;;6.05;55.10
70921;BME280;58572;48.110;19.838;2023-03-14T02:20:14;96880.03;;;5.03;58.11
70921;BME280;58572;48.110;19.838;2023-03-14T02:22:46;96881.94;;;4.92;58.67
70921;BME280;58572;48.110;19.838;2023-03-14T02:25:15;96875.56;;;5.58;56.29
70921;BME280;58572;48.110;19.838;2023-03-14T02:27:47;96873.75;;;5.43;56.01
70921;BME280;58572;48.110;19.838;2023-03-14T02:30:19;96872.66;;;5.44;54.86
70921;BME280;58572;48.110;19.838;2023-03-14T02:32:47;96873.91;;;6.26;52.33
70921;BME280;58572;48.110;19.838;2023-03-14T02:35:19;96863.00;;;5.97;53.19
70921;BME280;58572;48.110;19.838;2023-03-14T02:37:49;96858.00;;;6.59;50.81
70921;BME280;58572;48.110;19.838;2023-03-14T02:40:19;96851.94;;;6.72;52.08
70921;BME280;58572;48.110;19.838;2023-03-14T02:42:47;96830.00;;;5.61;54.40
70921;BME280;58572;48.110;19.838;2023-03-14T02:45:38;96854.00;;;6.12;50.78
70921;BME280;58572;48.110;19.838;2023-03-14T02:48:09;96854.78;;;6.57;49.02
70921;BME280;58572;48.110;19.838;2023-03-14T02:50:38;96855.09;;;6.50;49.83
70921;BME280;58572;48.110;19.838;2023-03-14T02:53:05;96851.22;;;6.90;49.43
70921;BME280;58572;48.110;19.838;2023-03-14T02:55:33;96806.75;;;6.54;47.97
70921;BME280;58572;48.110;19.838;2023-03-14T02:58:01;96746.41;;;5.66;48.72
70921;BME280;58572;48.110;19.838;2023-03-14T03:00:29;96827.84;;;7.04;46.10
70921;BME280;58572;48.110;19.838;2023-03-14T03:02:57;96815.66;;;7.07;49.87
70921;BME280;58572;48.110;19.838;2023-03-14T03:05:24;96814.09;;;7.30;47.56
70921;BME280;58572;48.110;19.838;2023-03-14T03:07:51;96803.88;;;7.22;47.92
70921;BME280;58572;48.110;19.838;2023-03-14T03:10:19;96802.91;;;7.36;48.38
70921;BME280;58572;48.110;19.838;2023-03-14T03:12:46;96798.47;;;7.22;47.49
70921;BME280;58572;48.110;19.838;2023-03-14T03:15:14;96800.81;;;7.04;47.42
70921;BME280;58572;48.110;19.838;2023-03-14T03:17:41;96798.88;;;6.86;47.17
70921;BME280;58572;48.110;19.838;2023-03-14T03:20:10;96796.91;;;7.16;47.13
70921;BME280;58572;48.110;19.838;2023-03-14T03:22:37;96797.38;;;7.23;46.81
70921;BME280;58572;48.110;19.838;2023-03-14T03:25:05;96797.66;;;6.97;47.35
70921;BME280;58572;48.110;19.838;2023-03-14T03:27:33;96790.06;;;7.47;45.31
70921;BME280;58572;48.110;19.838;2023-03-14T03:30:02;96790.13;;;7.42;46.48
70921;BME280;58572;48.110;19.838;2023-03-14T03:32:32;96783.00;;;7.27;46.29
70921;BME280;58572;48.110;19.838;2023-03-14T03:34:59;96782.75;;;7.29;46.33
70921;BME280;58572;48.110;19.838;2023-03-14T03:37:26;96783.31;;;7.68;45.54
70921;BME280;58572;48.110;19.838;2023-03-14T03:39:53;96771.59;;;7.54;46.19
70921;BME280;58572;48.110;19.838;2023-03-14T03:42:21;96769.38;;;7.14;47.20
70921;BME280;58572;48.110;19.838;2023-03-14T03:44:48;96762.75;;;7.49;47.34
70921;BME280;58572;48.110;19.838;2023-03-14T03:47:15;96761.84;;;7.11;46.12
70921;BME280;58572;48.110;19.838;2023-03-14T03:49:44;96767.25;;;6.87;46.91
70921;BME280;58572;48.110;19.838;2023-03-14T03:52:11;96761.22;;;6.95;46.75
70921;BME280;58572;48.110;19.838;2023-03-14T03:54:38;96748.41;;;7.05;47.72
70921;BME280;58572;48.110;19.838;2023-03-14T03:57:06;96742.06;;;7.39;47.08
70921;BME280;58572;48.110;19.838;2023-03-14T03:59:33;96742.75;;;7.26;48.52
70921;BME280;58572;48.110;19.838;2023-03-14T04:02:00;96728.72;;;7.24;48.59
70921;BME280;58572;48.110;19.838;2023-03-14T04:04:27;96582.59;;;6.59;47.44
70921;BME280;58572;48.110;19.838;2023-03-14T04:06:56;96695.03;;;7.16;47.30
70921;BME280;58572;48.110;19.838;2023-03-14T04:09:23;96733.28;;;7.04;50.00
70921;BME280;58572;48.110;19.838;2023-03-14T04:11:51;96741.25;;;7.15;48.92
70921;BME280;58572;48.110;19.838;2023-03-14T04:14:18;96744.09;;;6.81;50.02
70921;BME280;58572;48.110;19.838;2023-03-14T04:16:45;96670.09;;;6.58;49.17
70921;BME280;58572;48.110;19.838;2023-03-14T04:19:12;96752.81;;;7.63;48.48
70921;BME280;58572;48.110;19.838;2023-03-14T04:21:39;96770.34;;;7.65;50.14
70921;BME280;58572;48.110;19.838;2023-03-14T04:24:11;96775.16;;;6.20;54.59
70921;BME280;58572;48.110;19.838;2023-03-14T04:26:39;96758.81;;;6.40;55.24
70921;BME280;58572;48.110;19.838;2023-03-14T04:29:06;96747.97;;;6.46;55.59
70921;BME280;58572;48.110;19.838;2023-03-14T04:31:33;96743.78;;;7.06;52.43
70921;BME280;58572;48.110;19.838;2023-03-14T04:34:00;96750.25;;;6.86;53.48
70921;BME280;58572;48.110;19.838;2023-03-14T04:36:27;96749.66;;;6.65;53.29
70921;BME280;58572;48.110;19.838;2023-03-14T04:38:54;96757.00;;;6.60;53.98
70921;BME280;58572;48.110;19.838;2023-03-14T04:41:23;96756.22;;;6.83;52.67
70921;BME280;58572;48.110;19.838;2023-03-14T04:43:50;96765.88;;;5.53;57.65
70921;BME280;58572;48.110;19.838;2023-03-14T04:46:17;96750.75;;;5.57;58.33
70921;BME280;58572;48.110;19.838;2023-03-14T04:48:45;96756.81;;;5.34;59.01
70921;BME280;58572;48.110;19.838;2023-03-14T04:51:12;96753.56;;;5.42;58.65
70921;BME280;58572;48.110;19.838;2023-03-14T04:53:39;96765.44;;;5.36;59.68
70921;BME280;58572;48.110;19.838;2023-03-14T04:56:07;96762.66;;;5.51;59.25
70921;BME280;58572;48.110;19.838;2023-03-14T04:58:36;96717.38;;;5.87;57.36
70921;BME280;58572;48.110;19.838;2023-03-14T05:01:03;96735.75;;;6.24;56.04
70921;BME280;58572;48.110;19.838;2023-03-14T05:03:31;96630.13;;;5.39;56.81
70921;BME280;58572;48.110;19.838;2023-03-14T05:05:58;96744.56;;;5.57;59.27
70921;BME280;58572;48.110;19.838;2023-03-14T05:08:26;96744.69;;;5.81;59.56
70921;BME280;58572;48.110;19.838;2023-03-14T05:10:53;96735.41;;;6.60;55.88
70921;BME280;58572;48.110;19.838;2023-03-14T05:13:21;96737.88;;;6.27;57.76
70921;BME280;58572;48.110;19.838;2023-03-14T05:15:50;96726.66;;;6.44;56.86
70921;BME280;58572;48.110;19.838;2023-03-14T05:18:17;96742.16;;;6.33;57.17
70921;BME280;58572;48.110;19.838;2023-03-14T05:20:45;96726.34;;;6.75;56.40
70921;BME280;58572;48.110;19.838;2023-03-14T05:23:12;96717.88;;;6.81;56.59
70921;BME280;58572;48.110;19.838;2023-03-14T05:25:42;96716.44;;;6.65;57.45
70921;BME280;58572;48.110;19.838;2023-03-14T05:28:09;96701.44;;;6.78;57.15
70921;BME280;58572;48.110;19.838;2023-03-14T05:30:36;96702.59;;;6.95;56.95
70921;BME280;58572;48.110;19.838;2023-03-14T05:33:05;96687.91;;;7.01;56.45
70921;BME280;58572;48.110;19.838;2023-03-14T05:35:32;96688.34;;;7.51;54.59
70921;BME280;58572;48.110;19.838;2023-03-14T05:38:00;96694.09;;;6.83;54.96
70921;BME280;58572;48.110;19.838;2023-03-14T05:40:27;96677.38;;;7.43;54.06
70921;BME280;58572;48.110;19.838;2023-03-14T05:42:55;96684.69;;;7.42;54.92
70921;BME280;58572;48.110;19.838;2023-03-14T05:45:22;96628.00;;;6.76;51.78
70921;BME280;58572;48.110;19.838;2023-03-14T05:47:49;96688.75;;;7.77;51.03
70921;BME280;58572;48.110;19.838;2023-03-14T05:50:18;96683.28;;;7.26;55.92
70921;BME280;58572;48.110;19.838;2023-03-14T05:52:45;96643.13;;;7.38;52.49
70921;BME280;58572;48.110;19.838;2023-03-14T05:55:12;96614.47;;;7.37;53.42
70921;BME280;58572;48.110;19.838;2023-03-14T05:57:40;96698.28;;;7.75;53.62
70921;BME280;58572;48.110;19.838;2023-03-14T06:00:08;96649.69;;;8.62;47.75
70921;BME280;58572;48.110;19.838;2023-03-14T06:02:35;96654.91;;;8.45;50.62
70921;BME280;58572;48.110;19.838;2023-03-14T06:05:03;96671.81;;;8.04;49.84
70921;BME280;58572;48.110;19.838;2023-03-14T06:07:32;96660.47;;;9.17;48.53
70921;BME280;58572;48.110;19.838;2023-03-14T06:09:59;96670.34;;;8.85;50.44
70921;BME280;58572;48.110;19.838;2023-03-14T06:12:26;96667.44;;;8.95;50.70
70921;BME280;58572;48.110;19.838;2023-03-14T06:14:54;96656.81;;;8.58;50.53
70921;BME280;58572;48.110;19.838;2023-03-14T06:17:22;96669.84;;;7.58;54.29
70921;BME280;58572;48.110;19.838;2023-03-14T06:19:49;96610.06;;;7.03;55.42
70921;BME280;58572;48.110;19.838;2023-03-14T06:22:17;96651.19;;;7.00;56.20
70921;BME280;58572;48.110;19.838;2023-03-14T06:24:46;96635.13;;;7.65;53.50
70921;BME280;58572;48.110;19.838;2023-03-14T06:27:13;96660.75;;;7.87;54.46
70921;BME280;58572;48.110;19.838;2023-03-14T06:29:40;96663.44;;;8.19;49.71
70921;BME280;58572;48.110;19.838;2023-03-14T06:32:07;96658.19;;;8.09;50.91
70921;BME280;58572;48.110;19.838;2023-03-14T06:34:35;96478.69;;;7.08;49.63
70921;BME280;58572;48.110;19.838;2023-03-14T06:37:04;96648.69;;;8.58;48.76
70921;BME280;58572;48.110;19.838;2023-03-14T06:39:31;96632.03;;;8.51;48.90
70921;BME280;58572;48.110;19.838;2023-03-14T06:42:00;96651.00;;;8.64;49.64
70921;BME280;58572;48.110;19.838;2023-03-14T06:44:27;96656.50;;;9.01;49.83
70921;BME280;58572;48.110;19.838;2023-03-14T06:46:54;96650.84;;;9.11;48.58
70921;BME280;58572;48.110;19.838;2023-03-14T06:49:22;96660.25;;;9.27;48.12
70921;BME280;58572;48.110;19.838;2023-03-14T06:51:49;96649.34;;;9.54;47.43
70921;BME280;58572;48.110;19.838;2023-03-14T06:54:16;96658.13;;;9.74;47.69
70921;BME280;58572;48.110;19.838;2023-03-14T06:56:43;96594.00;;;9.55;46.94
70921;BME280;58572;48.110;19.838;2023-03-14T06:59:12;96636.16;;;10.29;46.45
70921;BME280;58572;48.110;19.838;2023-03-14T07:01:39;96646.72;;;10.61;46.30
70921;BME280;58572;48.110;19.838;2023-03-14T07:04:08;96633.63;;;10.72;47.92
70921;BME280;58572;48.110;19.838;2023-03-14T07:06:36;96643.81;;;10.58;46.71
70921;BME280;58572;48.110;19.838;2023-03-14T07:09:05;96514.03;;;9.84;47.12
70921;BME280;58572;48.110;19.838;2023-03-14T07:11:32;96655.84;;;10.65;47.12
70921;BME280;58572;48.110;19.838;2023-03-14T07:14:00;96638.22;;;10.54;46.80
70921;BME280;58572;48.110;19.838;2023-03-14T07:16:28;96625.81;;;10.79;47.08
70921;BME280;58572;48.110;19.838;2023-03-14T07:18:58;96605.25;;;10.47;46.89
70921;BME280;58572;48.110;19.838;2023-03-14T07:21:26;96659.78;;;10.99;46.91
70921;BME280;58572;48.110;19.838;2023-03-14T07:23:53;96654.28;;;10.81;46.61
70921;BME280;58572;48.110;19.838;2023-03-14T07:26:21;96643.69;;;11.37;46.52
70921;BME280;58572;48.110;19.838;2023-03-14T07:28:48;96646.47;;;11.63;45.06
70921;BME280;58572;48.110;19.838;2023-03-14T07:31:15;96645.81;;;11.48;45.53
70921;BME280;58572;48.110;19.838;2023-03-14T07:33:43;96646.38;;;11.11;46.25
70921;BME280;58572;48.110;19.838;2023-03-14T07:36:11;96646.00;;;10.86;46.73
70921;BME280;58572;48.110;19.838;2023-03-14T07:38:38;96658.56;;;11.31;45.88
70921;BME280;58572;48.110;19.838;2023-03-14T07:41:06;96659.13;;;12.02;44.62
70921;BME280;58572;48.110;19.838;2023-03-14T07:43:33;96642.47;;;11.95;44.52
70921;BME280;58572;48.110;19.838;2023-03-14T07:46:01;96660.06;;;11.54;43.79
70921;BME280;58572;48.110;19.838;2023-03-14T07:48:28;96651.22;;;12.18;43.21
70921;BME280;58572;48.110;19.838;2023-03-14T07:50:57;96651.31;;;12.47;44.40
70921;BME280;58572;48.110;19.838;2023-03-14T07:53:24;96644.13;;;12.51;43.34
70921;BME280;58572;48.110;19.838;2023-03-14T07:55:53;96646.31;;;12.66;42.88
70921;BME280;58572;48.110;19.838;2023-03-14T07:58:21;96651.34;;;12.38;41.33
70921;BME280;58572;48.110;19.838;2023-03-14T08:00:48;96645.44;;;12.28;44.19
70921;BME280;58572;48.110;19.838;2023-03-14T08:03:16;96644.63;;;12.83;42.25
70921;BME280;58572;48.110;19.838;2023-03-14T08:05:43;96636.38;;;13.50;41.44
70921;BME280;58572;48.110;19.838;2023-03-14T08:08:11;96635.97;;;13.39;40.42
70921;BME280;58572;48.110;19.838;2023-03-14T08:10:38;96508.25;;;12.62;40.05
70921;BME280;58572;48.110;19.838;2023-03-14T08:13:06;96639.31;;;13.16;43.55
70921;BME280;58572;48.110;19.838;2023-03-14T08:15:33;96643.16;;;13.23;41.97
70921;BME280;58572;48.110;19.838;2023-03-14T08:18:00;96630.56;;;13.31;42.43
70921;BME280;58572;48.110;19.838;2023-03-14T08:20:28;96630.50;;;13.19;42.00
70921;BME280;58572;48.110;19.838;2023-03-14T08:22:57;96634.50;;;13.21;40.83
70921;BME280;58572;48.110;19.838;2023-03-14T08:25:26;96637.00;;;13.77;38.41
70921;BME280;58572;48.110;19.838;2023-03-14T08:27:54;96645.19;;;13.56;41.77
70921;BME280;58572;48.110;19.838;2023-03-14T08:30:21;96635.53;;;13.79;40.33
70921;BME280;58572;48.110;19.838;2023-03-14T08:32:49;96631.63;;;13.68;41.42
70921;BME280;58572;48.110;19.838;2023-03-14T08:35:16;96495.88;;;13.06;41.25
70921;BME280;58572;48.110;19.838;2023-03-14T08:37:43;96625.56;;;13.62;39.42
70921;BME280;58572;48.110;19.838;2023-03-14T08:40:11;96610.31;;;14.27;41.08
70921;BME280;58572;48.110;19.838;2023-03-14T08:42:40;96602.41;;;14.47;38.69
70921;BME280;58572;48.110;19.838;2023-03-14T08:45:09;96592.50;;;14.54;39.90
70921;BME280;58572;48.110;19.838;2023-03-14T08:47:37;96600.41;;;14.80;40.61
70921;BME280;58572;48.110;19.838;2023-03-14T08:50:06;96558.91;;;15.43;39.83
70921;BME280;58572;48.110;19.838;2023-03-14T08:52:33;96583.97;;;15.57;39.05
70921;BME280;58572;48.110;19.838;2023-03-14T08:55:00;96590.06;;;15.90;38.57
70921;BME280;58572;48.110;19.838;2023-03-14T08:57:27;96586.38;;;14.94;39.71
70921;BME280;58572;48.110;19.838;2023-03-14T08:59:56;96585.84;;;15.28;38.93
70921;BME280;58572;48.110;19.838;2023-03-14T09:02:25;96535.06;;;16.74;36.05
70921;BME280;58572;48.110;19.838;2023-03-14T09:04:52;96590.88;;;16.07;34.80
70921;BME280;58572;48.110;19.838;2023-03-14T09:07:20;96558.84;;;15.15;39.49
70921;BME280;58572;48.110;19.838;2023-03-14T09:09:47;96578.25;;;15.74;38.79
70921;BME280;58572;48.110;19.838;2023-03-14T09:12:14;96567.91;;;15.43;39.83
70921;BME280;58572;48.110;19.838;2023-03-14T09:14:41;96571.00;;;16.10;37.95
70921;BME280;58572;48.110;19.838;2023-03-14T09:17:10;96566.97;;;15.91;39.06
70921;BME280;58572;48.110;19.838;2023-03-14T09:19:37;96569.19;;;15.33;39.36
70921;BME280;58572;48.110;19.838;2023-03-14T09:22:04;96519.13;;;15.73;38.94
70921;BME280;58572;48.110;19.838;2023-03-14T09:24:32;96552.47;;;15.51;39.84
70921;BME280;58572;48.110;19.838;2023-03-14T09:26:59;96522.19;;;15.31;38.79
70921;BME280;58572;48.110;19.838;2023-03-14T09:29:26;96539.59;;;16.07;38.22
70921;BME280;58572;48.110;19.838;2023-03-14T09:31:53;96548.72;;;16.27;38.48
70921;BME280;58572;48.110;19.838;2023-03-14T09:34:22;96539.81;;;16.93;38.44
70921;BME280;58572;48.110;19.838;2023-03-14T09:36:49;96534.13;;;16.23;37.34
70921;BME280;58572;48.110;19.838;2023-03-14T09:39:16;96529.06;;;15.93;38.70
70921;BME280;58572;48.110;19.838;2023-03-14T09:41:45;96526.66;;;16.67;38.17
70921;BME280;58572;48.110;19.838;2023-03-14T09:44:15;96507.41;;;17.72;36.86
70921;BME280;58572;48.110;19.838;2023-03-14T09:46:45;96515.44;;;18.49;34.76
70921;BME280;58572;48.110;19.838;2023-03-14T09:49:19;96470.84;;;18.86;34.64
70921;BME280;58572;48.110;19.838;2023-03-14T09:51:51;96479.72;;;19.32;33.11
70921;BME280;58572;48.110;19.838;2023-03-14T09:54:30;96498.94;;;18.99;34.88
70921;BME280;58572;48.110;19.838;2023-03-14T09:56:58;96493.09;;;19.30;33.62
70921;BME280;58572;48.110;19.838;2023-03-14T09:59:27;96504.44;;;18.49;34.82
70921;BME280;58572;48.110;19.838;2023-03-14T10:01:56;96495.38;;;18.72;34.64
70921;BME280;58572;48.110;19.838;2023-03-14T10:04:25;96478.63;;;20.99;32.43
70921;BME280;58572;48.110;19.838;2023-03-14T10:06:54;96459.97;;;20.82;31.61
70921;BME280;58572;48.110;19.838;2023-03-14T10:09:23;96461.13;;;21.50;31.92
70921;BME280;58572;48.110;19.838;2023-03-14T10:11:54;96468.88;;;19.46;30.72
70921;BME280;58572;48.110;19.838;2023-03-14T10:14:30;96455.44;;;21.15;32.37
70921;BME280;58572;48.110;19.838;2023-03-14T10:17:05;96432.09;;;21.09;30.78
70921;BME280;58572;48.110;19.838;2023-03-14T10:19:34;96411.25;;;20.56;33.07
70921;BME280;58572;48.110;19.838;2023-03-14T10:22:04;96452.16;;;20.40;32.90
70921;BME280;58572;48.110;19.838;2023-03-14T10:24:33;96449.28;;;21.53;29.26
70921;BME280;58572;48.110;19.838;2023-03-14T10:27:04;96455.69;;;21.72;29.07
70921;BME280;58572;48.110;19.838;2023-03-14T10:29:32;96449.22;;;20.22;31.10
70921;BME280;58572;48.110;19.838;2023-03-14T10:32:01;96448.66;;;21.99;30.46
70921;BME280;58572;48.110;19.838;2023-03-14T10:34:29;96450.03;;;21.36;30.92
70921;BME280;58572;48.110;19.838;2023-03-14T10:36:58;96447.31;;;21.54;29.34
70921;BME280;58572;48.110;19.838;2023-03-14T10:39:32;96441.06;;;20.88;31.55
70921;BME280;58572;48.110;19.838;2023-03-14T10:42:09;96390.06;;;21.61;28.81
70921;BME280;58572;48.110;19.838;2023-03-14T10:44:39;96424.13;;;22.01;29.43
70921;BME280;58572;48.110;19.838;2023-03-14T10:47:12;96317.44;;;19.24;30.06
70921;BME280;58572;48.110;19.838;2023-03-14T10:49:41;96315.16;;;19.33;30.62
70921;BME280;58572;48.110;19.838;2023-03-14T10:52:15;96414.28;;;18.16;32.03
70921;BME280;58572;48.110;19.838;2023-03-14T10:54:47;96430.13;;;19.32;31.96
70921;BME280;58572;48.110;19.838;2023-03-14T10:57:18;96406.88;;;20.52;32.12
70921;BME280;58572;48.110;19.838;2023-03-14T10:59:46;96409.81;;;21.63;31.29
70921;BME280;58572;48.110;19.838;2023-03-14T11:05:16;96392.41;;;19.40;34.15
70921;BME280;58572;48.110;19.838;2023-03-14T11:07:47;96390.84;;;20.20;32.77
70921;BME280;58572;48.110;19.838;2023-03-14T11:10:30;96388.69;;;21.16;31.16
70921;BME280;58572;48.110;19.838;2023-03-14T11:13:08;96338.72;;;21.82;29.03
70921;BME280;58572;48.110;19.838;2023-03-14T11:15:43;96361.28;;;21.87;31.65
70921;BME280;58572;48.110;19.838;2023-03-14T11:18:28;96369.44;;;21.34;31.34
70921;BME280;58572;48.110;19.838;2023-03-14T11:21:07;96375.38;;;20.60;29.86
70921;BME280;58572;48.110;19.838;2023-03-14T11:23:42;96251.75;;;21.79;30.53
70921;BME280;58572;48.110;19.838;2023-03-14T11:26:24;96347.44;;;22.34;31.08
70921;BME280;58572;48.110;19.838;2023-03-14T11:28:57;96338.78;;;22.03;31.52
70921;BME280;58572;48.110;19.838;2023-03-14T11:31:27;96330.63;;;21.06;32.61
70921;BME280;58572;48.110;19.838;2023-03-14T11:33:59;96310.97;;;21.25;31.75
70921;BME280;58572;48.110;19.838;2023-03-14T11:36:32;96345.94;;;20.27;33.58
70921;BME280;58572;48.110;19.838;2023-03-14T11:39:01;96342.81;;;20.28;31.81
70921;BME280;58572;48.110;19.838;2023-03-14T11:41:33;96324.31;;;21.09;32.84
70921;BME280;58572;48.110;19.838;2023-03-14T11:44:05;96246.16;;;22.40;31.03
70921;BME280;58572;48.110;19.838;2023-03-14T11:46:39;96321.50;;;20.94;31.61
70921;BME280;58572;48.110;19.838;2023-03-14T11:49:16;96303.53;;;22.36;32.25
70921;BME280;58572;48.110;19.838;2023-03-14T11:51:51;96304.75;;;21.92;32.52
70921;BME280;58572;48.110;19.838;2023-03-14T11:54:25;96288.63;;;23.17;29.68
70921;BME280;58572;48.110;19.838;2023-03-14T11:56:59;96298.44;;;22.09;31.37
70921;BME280;58572;48.110;19.838;2023-03-14T11:59:33;96226.69;;;22.61;30.54
70921;BME280;58572;48.110;19.838;2023-03-14T12:02:10;96279.44;;;22.25;32.08
70921;BME280;58572;48.110;19.838;2023-03-14T12:04:53;96278.66;;;24.71;27.94
70921;BME280;58572;48.110;19.838;2023-03-14T12:07:26;96282.41;;;22.99;30.60
70921;BME280;58572;48.110;19.838;2023-03-14T12:09:57;96281.03;;;23.28;28.80
70921;BME280;58572;48.110;19.838;2023-03-14T12:12:27;96269.47;;;23.40;29.37
70921;BME280;58572;48.110;19.838;2023-03-14T12:14:58;96263.03;;;24.47;26.80
70921;BME280;58572;48.110;19.838;2023-03-14T12:17:34;96261.47;;;24.05;29.02
70921;BME280;58572;48.110;19.838;2023-03-14T12:20:06;96261.38;;;24.53;28.89
70921;BME280;58572;48.110;19.838;2023-03-14T12:22:43;96269.78;;;22.80;28.17
70921;BME280;58572;48.110;19.838;2023-03-14T12:25:16;96252.44;;;22.51;30.71
70921;BME280;58572;48.110;19.838;2023-03-14T12:28:20;96253.22;;;22.58;30.36
70921;BME280;58572;48.110;19.838;2023-03-14T12:30:47;96252.75;;;23.51;29.58
70921;BME280;58572;48.110;19.838;2023-03-14T12:33:32;96245.34;;;22.50;30.56
70921;BME280;58572;48.110;19.838;2023-03-14T12:36:04;96231.22;;;22.05;31.67
70921;BME280;58572;48.110;19.838;2023-03-14T12:41:42;96250.94;;;21.25;32.53
70921;BME280;58572;48.110;19.838;2023-03-14T12:44:44;96256.88;;;20.33;34.19
70921;BME280;58572;48.110;19.838;2023-03-14T12:47:52;96244.63;;;21.25;33.51
70921;BME280;58572;48.110;19.838;2023-03-14T12:50:31;96237.69;;;20.58;34.05
70921;BME280;58572;48.110;19.838;2023-03-14T12:56:14;96240.47;;;20.62;34.46
70921;BME280;58572;48.110;19.838;2023-03-14T13:01:46;96219.97;;;20.63;33.83
70921;BME280;58572;48.110;19.838;2023-03-14T13:04:14;96226.00;;;20.10;35.05
70921;BME280;58572;48.110;19.838;2023-03-14T13:06:47;96220.91;;;20.12;34.96
70921;BME280;58572;48.110;19.838;2023-03-14T13:09:36;96226.66;;;19.86;34.82
70921;BME280;58572;48.110;19.838;2023-03-14T13:12:17;96203.91;;;20.03;34.41
70921;BME280;58572;48.110;19.838;2023-03-14T13:14:47;96212.59;;;20.05;35.02
70921;BME280;58572;48.110;19.838;2023-03-14T13:17:26;96202.19;;;19.33;35.73
70921;BME280;58572;48.110;19.838;2023-03-14T13:19:56;96192.44;;;19.94;34.92